createdAt,value
2018-06-22T00:01:00.547Z,9.70
2018-06-22T00:03:30.454Z,9.70
2018-06-22T00:06:00.424Z,9.70
2018-06-22T00:08:30.271Z,9.70
2018-06-22T00:11:00.140Z,9.60
2018-06-22T00:13:30.062Z,9.60
2018-06-22T00:15:59.893Z,9.60
2018-06-22T00:18:29.786Z,9.50
2018-06-22T00:20:59.822Z,9.50
2018-06-22T00:23:29.689Z,9.40
2018-06-22T00:25:59.777Z,9.40
2018-06-22T00:28:29.692Z,9.40
2018-06-22T00:30:59.911Z,9.30
2018-06-22T00:33:29.832Z,9.30
2018-06-22T00:35:59.748Z,9.30
2018-06-22T00:38:29.685Z,9.30
2018-06-22T00:40:59.732Z,9.30
2018-06-22T00:43:29.604Z,9.20
2018-06-22T00:45:59.508Z,9.20
2018-06-22T00:48:29.423Z,9.10
2018-06-22T00:50:59.329Z,9.00
2018-06-22T00:53:46.259Z,9.10
2018-06-22T00:56:16.171Z,9.10
2018-06-22T00:58:46.085Z,9.00
2018-06-22T01:01:16.000Z,8.90
2018-06-22T01:03:46.127Z,8.90
2018-06-22T01:06:16.054Z,8.90
2018-06-22T01:08:45.959Z,8.70
2018-06-22T01:11:15.861Z,8.90
2018-06-22T01:13:45.789Z,8.90
2018-06-22T01:16:15.728Z,8.80
2018-06-22T01:18:45.887Z,8.80
2018-06-22T01:21:15.803Z,8.90
2018-06-22T01:23:45.746Z,8.90
2018-06-22T01:26:15.658Z,8.80
2018-06-22T01:28:45.588Z,8.90
2018-06-22T01:31:15.555Z,8.90
2018-06-22T01:33:45.479Z,8.90
2018-06-22T01:36:15.395Z,9.00
2018-06-22T01:38:45.320Z,9.00
2018-06-22T01:41:15.832Z,9.00
2018-06-22T01:43:45.984Z,8.90
2018-06-22T01:46:15.883Z,8.90
2018-06-22T01:48:45.867Z,8.90
2018-06-22T01:51:15.807Z,9.00
2018-06-22T01:53:45.728Z,8.90
2018-06-22T01:56:15.634Z,9.00
2018-06-22T01:58:45.547Z,8.90
2018-06-22T02:01:15.448Z,8.90
2018-06-22T02:03:45.642Z,9.10
2018-06-22T02:06:15.548Z,9.10
2018-06-22T02:08:45.452Z,9.10
2018-06-22T02:11:15.396Z,9.20
2018-06-22T02:13:45.307Z,9.20
2018-06-22T02:16:15.211Z,9.20
2018-06-22T02:18:45.132Z,9.10
2018-06-22T02:21:15.063Z,9.00
2018-06-22T02:23:44.975Z,8.90
2018-06-22T02:26:14.899Z,8.90
2018-06-22T02:28:45.088Z,8.90
2018-06-22T02:31:14.960Z,8.80
2018-06-22T02:33:44.887Z,8.70
2018-06-22T02:36:15.387Z,8.70
2018-06-22T02:38:45.407Z,8.60
2018-06-22T02:41:15.323Z,8.60
2018-06-22T02:43:45.255Z,8.60
2018-06-22T02:46:15.160Z,8.60
2018-06-22T02:48:45.084Z,8.60
2018-06-22T02:51:15.007Z,8.50
2018-06-22T02:53:44.939Z,8.60
2018-06-22T02:56:14.851Z,8.50
2018-06-22T02:58:44.776Z,8.50
2018-06-22T03:01:14.846Z,8.50
2018-06-22T03:03:44.801Z,8.50
2018-06-22T03:06:14.705Z,8.40
2018-06-22T03:08:44.632Z,8.40
2018-06-22T03:11:14.560Z,8.40
2018-06-22T03:13:44.464Z,8.30
2018-06-22T03:16:14.380Z,8.30
2018-06-22T03:18:44.291Z,8.30
2018-06-22T03:21:14.209Z,8.20
2018-06-22T03:23:44.125Z,8.20
2018-06-22T03:26:14.044Z,8.20
2018-06-22T03:28:43.958Z,8.20
2018-06-22T03:31:14.085Z,8.10
2018-06-22T03:33:43.985Z,8.10
2018-06-22T03:36:13.901Z,8.10
2018-06-22T03:38:43.803Z,8.10
2018-06-22T03:41:13.723Z,8.10
2018-06-22T03:43:43.656Z,8.10
2018-06-22T03:46:13.564Z,8.20
2018-06-22T03:48:43.472Z,8.10
2018-06-22T03:51:13.399Z,8.20
2018-06-22T03:53:43.283Z,8.20
2018-06-22T03:56:13.212Z,8.20
2018-06-22T03:58:43.123Z,8.20
2018-06-22T04:01:13.046Z,8.20
2018-06-22T04:03:42.939Z,8.20
2018-06-22T04:06:13.053Z,8.20
2018-06-22T04:08:42.955Z,8.20
2018-06-22T04:11:12.875Z,8.20
2018-06-22T04:13:42.775Z,8.20
2018-06-22T04:16:12.691Z,8.30
2018-06-22T04:18:42.599Z,8.30
2018-06-22T04:21:12.584Z,8.30
2018-06-22T04:23:42.463Z,8.30
2018-06-22T04:26:12.383Z,8.30
2018-06-22T04:28:42.296Z,8.40
2018-06-22T04:31:12.247Z,8.40
2018-06-22T04:33:42.225Z,8.30
2018-06-22T04:36:12.128Z,8.30
2018-06-22T04:38:42.199Z,8.40
2018-06-22T04:41:12.279Z,8.50
2018-06-22T04:43:42.426Z,8.50
2018-06-22T04:46:12.336Z,8.50
2018-06-22T04:48:42.244Z,8.60
2018-06-22T04:51:12.165Z,8.70
2018-06-22T04:53:42.418Z,9.10
2018-06-22T04:56:12.387Z,9.40
2018-06-22T04:58:42.585Z,9.50
2018-06-22T05:01:12.503Z,9.50
2018-06-22T05:03:42.484Z,9.50
2018-06-22T05:06:12.343Z,9.60
2018-06-22T05:08:42.278Z,9.60
2018-06-22T05:11:12.205Z,9.60
2018-06-22T05:13:42.147Z,9.60
2018-06-22T05:16:12.072Z,9.70
2018-06-22T05:18:42.047Z,9.80
2018-06-22T05:21:11.967Z,10.10
2018-06-22T05:23:41.941Z,10.20
2018-06-22T05:26:11.882Z,10.20
2018-06-22T05:28:41.817Z,10.10
2018-06-22T05:31:11.747Z,10.10
2018-06-22T05:33:41.664Z,10.10
2018-06-22T05:36:11.593Z,10.20
2018-06-22T05:38:41.510Z,10.20
2018-06-22T05:41:11.440Z,10.20
2018-06-22T05:43:41.433Z,10.30
2018-06-22T05:46:11.585Z,10.30
2018-06-22T05:48:41.505Z,10.50
2018-06-22T05:51:11.971Z,10.60
2018-06-22T05:53:41.978Z,10.70
2018-06-22T05:56:12.220Z,10.80
2018-06-22T05:58:42.427Z,10.90
2018-06-22T06:01:12.879Z,11.00
2018-06-22T06:03:42.788Z,11.10
2018-06-22T06:06:12.836Z,11.30
2018-06-22T06:08:42.768Z,11.40
2018-06-22T06:11:12.759Z,11.50
2018-06-22T06:13:42.638Z,11.60
2018-06-22T06:16:12.592Z,11.60
2018-06-22T06:18:42.493Z,11.70
2018-06-22T06:21:12.443Z,11.70
2018-06-22T06:23:42.456Z,11.80
2018-06-22T06:26:12.383Z,11.80
2018-06-22T06:28:42.339Z,11.90
2018-06-22T06:31:12.281Z,11.90
2018-06-22T06:33:42.220Z,12.10
2018-06-22T06:36:12.148Z,12.30
2018-06-22T06:38:42.145Z,12.30
2018-06-22T06:41:12.039Z,12.40
2018-06-22T06:43:42.012Z,12.60
2018-06-22T06:46:12.113Z,12.90
2018-06-22T06:48:42.068Z,13.20
2018-06-22T06:51:12.032Z,13.40
2018-06-22T06:53:42.012Z,13.60
2018-06-22T06:56:11.943Z,13.70
2018-06-22T06:58:41.922Z,13.70
2018-06-22T07:01:11.951Z,13.60
2018-06-22T07:03:41.911Z,13.50
2018-06-22T07:06:11.908Z,13.50
2018-06-22T07:08:41.904Z,13.60
2018-06-22T07:11:11.822Z,13.70
2018-06-22T07:13:41.748Z,13.80
2018-06-22T07:16:11.773Z,13.90
2018-06-22T07:18:41.700Z,14.00
2018-06-22T07:21:11.611Z,14.50
2018-06-22T07:23:41.661Z,15.30
2018-06-22T07:26:11.589Z,15.80
2018-06-22T07:28:41.519Z,15.60
2018-06-22T07:31:11.455Z,15.80
2018-06-22T07:33:41.480Z,16.00
2018-06-22T07:36:11.405Z,15.70
2018-06-22T07:38:41.315Z,15.40
2018-06-22T07:43:40.928Z,15.50
2018-06-22T07:46:10.860Z,15.30
2018-06-22T07:48:40.776Z,15.20
2018-06-22T07:51:10.776Z,15.10
2018-06-22T07:53:40.667Z,15.40
2018-06-22T07:56:10.835Z,16.30
2018-06-22T07:58:40.763Z,17.40
2018-06-22T08:01:10.647Z,17.40
2018-06-22T08:03:40.596Z,17.50
2018-06-22T08:06:10.874Z,17.10
2018-06-22T08:08:40.743Z,16.40
2018-06-22T08:11:10.710Z,16.20
2018-06-22T08:13:40.612Z,16.00
2018-06-22T08:16:10.524Z,15.90
2018-06-22T08:18:40.535Z,15.70
2018-06-22T08:21:10.504Z,15.60
2018-06-22T08:23:40.440Z,15.40
2018-06-22T08:26:10.386Z,15.40
2018-06-22T08:28:40.311Z,15.40
2018-06-22T08:31:10.216Z,15.40
2018-06-22T08:33:40.152Z,15.40
2018-06-22T08:36:10.076Z,15.60
2018-06-22T08:41:09.555Z,15.70
2018-06-22T08:43:39.575Z,15.60
2018-06-22T08:46:09.504Z,15.40
2018-06-22T08:48:39.432Z,15.30
2018-06-22T08:51:09.551Z,15.30
2018-06-22T08:53:39.585Z,15.20
2018-06-22T08:56:09.559Z,15.20
2018-06-22T08:58:39.557Z,15.30
2018-06-22T09:01:09.447Z,15.40
2018-06-22T09:03:39.348Z,15.40
2018-06-22T09:06:09.342Z,15.40
2018-06-22T09:08:39.277Z,15.50
2018-06-22T09:11:09.241Z,16.10
2018-06-22T09:13:39.160Z,16.60
2018-06-22T09:16:09.072Z,17.00
2018-06-22T09:18:39.002Z,17.00
2018-06-22T09:21:08.932Z,17.00
2018-06-22T09:23:40.608Z,16.80
2018-06-22T09:26:10.509Z,16.50
2018-06-22T09:28:40.428Z,16.10
2018-06-22T09:31:10.376Z,15.90
2018-06-22T09:33:40.327Z,15.60
2018-06-22T09:36:10.326Z,15.50
2018-06-22T09:38:40.214Z,15.30
2018-06-22T09:41:10.124Z,15.20
2018-06-22T09:43:40.044Z,15.30
2018-06-22T09:46:09.967Z,15.30
2018-06-22T09:48:39.893Z,15.60
2018-06-22T09:51:09.898Z,15.80
2018-06-22T09:53:39.829Z,15.90
2018-06-22T09:56:09.727Z,16.00
2018-06-22T09:58:39.784Z,16.20
2018-06-22T10:01:09.679Z,16.40
2018-06-22T10:03:39.594Z,16.60
2018-06-22T10:06:09.503Z,16.70
2018-06-22T10:08:39.428Z,16.80
2018-06-22T10:11:09.428Z,16.80
2018-06-22T10:13:39.325Z,16.80
2018-06-22T10:16:09.248Z,17.20
2018-06-22T10:18:39.171Z,17.40
2018-06-22T10:21:09.103Z,17.50
2018-06-22T10:23:39.035Z,17.50
2018-06-22T10:26:08.959Z,17.40
2018-06-22T10:28:38.916Z,17.40
2018-06-22T10:31:08.855Z,17.40
2018-06-22T10:33:38.887Z,17.30
2018-06-22T10:36:08.768Z,17.20
2018-06-22T10:38:38.683Z,17.20
2018-06-22T10:41:08.596Z,16.90
2018-06-22T10:43:38.516Z,16.70
2018-06-22T10:46:08.488Z,16.30
2018-06-22T10:48:38.458Z,16.10
2018-06-22T10:51:08.385Z,16.00
2018-06-22T10:53:38.314Z,16.00
2018-06-22T10:56:08.252Z,16.10
2018-06-22T10:58:38.274Z,16.20
2018-06-22T11:01:08.290Z,16.30
2018-06-22T11:03:38.233Z,16.50
2018-06-22T11:06:08.161Z,16.40
2018-06-22T11:08:38.379Z,16.30
2018-06-22T11:11:08.327Z,16.30
2018-06-22T11:16:08.136Z,16.40
2018-06-22T11:18:38.110Z,16.40
2018-06-22T11:21:08.139Z,16.40
2018-06-22T11:23:38.024Z,16.30
2018-06-22T11:26:07.944Z,16.30
2018-06-22T11:28:37.859Z,16.30
2018-06-22T11:31:07.936Z,16.40
2018-06-22T11:33:38.093Z,16.30
2018-06-22T11:36:08.123Z,16.40
2018-06-22T11:38:38.232Z,16.30
2018-06-22T11:41:08.184Z,16.30
2018-06-22T11:43:38.120Z,16.50
2018-06-22T11:46:08.144Z,16.70
2018-06-22T11:48:38.025Z,17.00
2018-06-22T11:51:08.323Z,17.70
2018-06-22T11:53:38.215Z,18.50
2018-06-22T11:56:08.128Z,18.60
2018-06-22T11:58:38.036Z,18.80
2018-06-22T12:01:08.340Z,19.20
2018-06-22T12:03:38.201Z,19.10
2018-06-22T12:06:08.335Z,18.70
2018-06-22T12:08:38.279Z,18.40
2018-06-22T12:11:08.267Z,18.00
2018-06-22T12:13:38.279Z,17.80
2018-06-22T12:16:08.464Z,17.80
2018-06-22T12:18:38.387Z,17.70
2018-06-22T12:21:09.388Z,17.80
2018-06-22T12:23:39.320Z,17.90
2018-06-22T12:28:39.015Z,18.30
2018-06-22T12:31:09.040Z,18.30
2018-06-22T12:33:38.963Z,18.20
2018-06-22T12:36:08.891Z,18.00
2018-06-22T12:38:38.915Z,17.80
2018-06-22T12:41:09.191Z,17.70
2018-06-22T12:43:39.116Z,17.90
2018-06-22T12:46:09.061Z,18.20
2018-06-22T12:48:38.995Z,19.10
2018-06-22T12:51:09.356Z,19.10
2018-06-22T12:53:39.259Z,19.30
2018-06-22T12:56:09.204Z,19.40
2018-06-22T12:58:39.135Z,19.70
2018-06-22T13:01:09.275Z,19.90
2018-06-22T13:03:39.197Z,19.50
2018-06-22T13:06:09.148Z,19.20
2018-06-22T13:08:39.072Z,19.10
2018-06-22T13:11:09.364Z,19.00
2018-06-22T13:13:39.326Z,19.30
2018-06-22T13:16:09.262Z,19.40
2018-06-22T13:18:39.175Z,19.30
2018-06-22T13:21:09.357Z,19.60
2018-06-22T13:23:39.337Z,19.80
2018-06-22T13:26:09.259Z,19.50
2018-06-22T13:28:39.184Z,19.50
2018-06-22T13:31:09.467Z,19.60
2018-06-22T13:33:39.471Z,19.50
2018-06-22T13:36:09.502Z,19.60
2018-06-22T13:38:39.411Z,19.50
2018-06-22T13:41:09.689Z,19.50
2018-06-22T13:43:39.643Z,19.80
2018-06-22T13:46:09.516Z,20.00
2018-06-22T13:48:39.532Z,19.70
2018-06-22T13:51:09.780Z,19.60
2018-06-22T13:53:39.771Z,20.10
2018-06-22T13:56:09.840Z,20.50
2018-06-22T13:58:39.784Z,20.50
2018-06-22T14:01:10.316Z,20.30
2018-06-22T14:03:44.370Z,19.90
2018-06-22T14:06:20.042Z,19.50
2018-06-22T14:08:50.048Z,19.30
2018-06-22T14:11:19.972Z,19.10
2018-06-22T14:13:49.900Z,19.00
2018-06-22T14:16:19.827Z,19.10
2018-06-22T14:18:49.753Z,19.10
2018-06-22T14:21:19.775Z,19.00
2018-06-22T14:23:49.692Z,18.80
2018-06-22T14:26:19.624Z,18.90
2018-06-22T14:28:49.764Z,19.10
2018-06-22T14:31:19.704Z,19.30
2018-06-22T14:33:49.628Z,19.50
2018-06-22T14:36:19.548Z,19.30
2018-06-22T14:38:49.500Z,19.20
2018-06-22T14:41:19.421Z,19.20
2018-06-22T14:43:49.352Z,19.10
2018-06-22T14:46:19.378Z,19.10
2018-06-22T14:48:49.774Z,19.10
2018-06-22T14:51:19.683Z,19.10
2018-06-22T14:53:54.943Z,19.00
2018-06-22T14:56:30.211Z,18.80
2018-06-22T14:59:05.328Z,18.70
2018-06-22T15:01:40.484Z,18.70
2018-06-22T15:04:15.606Z,18.60
2018-06-22T15:06:50.716Z,18.50
2018-06-22T15:09:20.632Z,18.40
2018-06-22T15:11:50.560Z,18.30
2018-06-22T15:14:20.542Z,18.30
2018-06-22T15:16:50.677Z,18.30
2018-06-22T15:19:20.602Z,18.40
2018-06-22T15:21:50.530Z,18.40
2018-06-22T15:24:20.561Z,18.50
2018-06-22T15:26:50.443Z,18.60
2018-06-22T15:29:20.385Z,18.60
2018-06-22T15:31:50.347Z,18.60
2018-06-22T15:34:25.579Z,18.60
2018-06-22T15:37:00.718Z,18.50
2018-06-22T15:39:35.844Z,18.40
2018-06-22T15:42:11.010Z,18.40
2018-06-22T15:44:46.260Z,18.40
2018-06-22T15:47:21.388Z,18.40
2018-06-22T15:49:56.644Z,18.50
2018-06-22T15:52:32.171Z,18.60
2018-06-22T15:55:08.827Z,18.50
2018-06-22T15:57:38.829Z,18.50
2018-06-22T16:00:10.922Z,18.80
2018-06-22T16:02:46.121Z,19.30
2018-06-22T16:05:16.048Z,19.90
2018-06-22T16:07:46.395Z,19.90
2018-06-22T16:10:16.431Z,19.70
2018-06-22T16:12:46.351Z,19.50
2018-06-22T16:15:21.612Z,19.30
2018-06-22T16:17:56.739Z,19.10
2018-06-22T16:20:31.864Z,18.80
2018-06-22T16:23:07.159Z,18.70
2018-06-22T16:25:42.483Z,18.50
2018-06-22T16:28:12.751Z,18.30
2018-06-22T16:30:42.710Z,18.10
2018-06-22T16:33:12.851Z,18.00
2018-06-22T16:35:42.845Z,17.90
2018-06-22T16:38:12.772Z,17.80
2018-06-22T16:40:42.663Z,17.70
2018-06-22T16:43:12.800Z,17.70
2018-06-22T16:45:42.779Z,17.60
2018-06-22T16:48:12.751Z,17.60
2018-06-22T16:50:42.704Z,17.50
2018-06-22T16:53:13.646Z,17.50
2018-06-22T16:55:43.555Z,17.40
2018-06-22T16:58:18.983Z,17.40
2018-06-22T17:00:49.257Z,17.40
2018-06-22T17:03:19.220Z,17.50
2018-06-22T17:05:50.424Z,17.60
2018-06-22T17:08:25.575Z,17.60
2018-06-22T17:11:00.717Z,17.60
2018-06-22T17:13:35.840Z,17.70
2018-06-22T17:18:17.131Z,17.70
2018-06-22T17:20:47.047Z,17.60
2018-06-22T17:23:16.968Z,17.50
2018-06-22T17:25:46.884Z,17.40
2018-06-22T17:28:16.824Z,17.40
2018-06-22T17:30:46.788Z,17.30
2018-06-22T17:33:16.727Z,17.30
2018-06-22T17:35:46.653Z,17.30
2018-06-22T17:38:16.650Z,17.20
2018-06-22T17:40:46.576Z,17.20
2018-06-22T17:43:16.487Z,17.30
2018-06-22T17:45:46.656Z,17.40
2018-06-22T17:48:16.580Z,17.40
2018-06-22T17:50:47.016Z,17.60
2018-06-22T17:53:16.944Z,17.60
2018-06-22T17:55:46.906Z,17.60
2018-06-22T17:58:16.904Z,17.60
2018-06-22T18:00:52.187Z,17.60
2018-06-22T18:03:27.265Z,17.50
2018-06-22T18:06:02.414Z,17.40
2018-06-22T18:08:37.643Z,17.50
2018-06-22T18:11:12.780Z,17.40
2018-06-22T18:13:42.704Z,17.40
2018-06-22T18:16:12.632Z,17.30
2018-06-22T18:18:42.608Z,17.30
2018-06-22T18:21:12.612Z,17.30
2018-06-22T18:23:42.551Z,17.20
2018-06-22T18:26:12.487Z,17.10
2018-06-22T18:28:42.451Z,17.10
2018-06-22T18:31:12.631Z,17.00
2018-06-22T18:33:42.544Z,16.80
2018-06-22T18:36:12.489Z,16.70
2018-06-22T18:38:42.376Z,16.60
2018-06-22T18:41:12.539Z,16.50
2018-06-22T18:46:18.451Z,16.30
2018-06-22T18:48:48.339Z,16.20
2018-06-22T18:53:53.256Z,16.00
2018-06-22T18:56:28.680Z,15.90
2018-06-22T18:59:03.847Z,15.80
2018-06-22T19:01:38.870Z,15.80
2018-06-22T19:04:09.040Z,15.80
2018-06-22T19:06:38.967Z,15.70
2018-06-22T19:09:09.454Z,15.70
2018-06-22T19:11:39.423Z,15.60
2018-06-22T19:14:09.676Z,15.60
2018-06-22T19:16:40.692Z,15.50
2018-06-22T19:19:10.955Z,15.40
2018-06-22T19:21:40.905Z,15.40
2018-06-22T19:24:10.917Z,15.20
2018-06-22T19:26:40.843Z,15.10
2018-06-22T19:29:10.757Z,15.00
2018-06-22T19:31:40.683Z,15.00
2018-06-22T19:34:10.608Z,15.00
2018-06-22T19:36:40.543Z,14.90
2018-06-22T19:39:11.258Z,14.80
2018-06-22T19:41:41.180Z,14.70
2018-06-22T19:44:16.460Z,14.60
2018-06-22T19:46:52.407Z,14.40
2018-06-22T19:49:27.540Z,14.20
2018-06-22T19:52:03.397Z,14.00
2018-06-22T19:54:33.504Z,13.80
2018-06-22T19:57:03.544Z,13.60
2018-06-22T19:59:33.899Z,13.50
2018-06-22T20:02:03.941Z,13.30
2018-06-22T20:04:33.836Z,13.10
2018-06-22T20:07:03.760Z,13.00
2018-06-22T20:09:33.772Z,12.80
2018-06-22T20:12:03.692Z,12.60
2018-06-22T20:14:33.612Z,12.50
2018-06-22T20:17:03.539Z,12.30
2018-06-22T20:19:33.475Z,12.20
2018-06-22T20:22:03.559Z,12.10
2018-06-22T20:24:38.813Z,12.00
2018-06-22T20:27:08.742Z,11.80
2018-06-22T20:29:38.776Z,11.70
2018-06-22T20:32:09.418Z,11.60
2018-06-22T20:34:44.686Z,11.50
2018-06-22T20:37:20.034Z,11.50
2018-06-22T20:39:55.384Z,11.40
2018-06-22T20:45:05.732Z,11.30
2018-06-22T20:47:40.848Z,11.20
2018-06-22T20:50:16.088Z,11.20
2018-06-22T20:52:46.075Z,11.10
2018-06-22T20:55:16.360Z,11.00
2018-06-22T20:57:46.288Z,11.00
2018-06-22T21:00:16.319Z,10.90
2018-06-22T21:02:46.248Z,10.90
2018-06-22T21:05:16.555Z,10.80
2018-06-22T21:07:46.514Z,10.80
2018-06-22T21:10:16.432Z,10.70
2018-06-22T21:12:46.390Z,10.60
2018-06-22T21:15:16.459Z,10.60
2018-06-22T21:17:46.393Z,10.60
2018-06-22T21:20:16.327Z,10.50
2018-06-22T21:22:46.430Z,10.50
2018-06-22T21:25:16.632Z,10.50
2018-06-22T21:27:51.767Z,10.50
2018-06-22T21:30:26.904Z,10.50
2018-06-22T21:33:02.080Z,10.50
2018-06-22T21:35:37.443Z,10.40
2018-06-22T21:38:12.769Z,10.40
2018-06-22T21:40:42.695Z,10.40
2018-06-22T21:43:12.623Z,10.30
2018-06-22T21:45:42.535Z,10.30
2018-06-22T21:48:12.510Z,10.30
2018-06-22T21:50:42.443Z,10.20
2018-06-22T21:53:12.369Z,10.30
2018-06-22T21:55:42.263Z,10.20
2018-06-22T21:58:12.251Z,10.20
2018-06-22T22:00:42.199Z,10.20
2018-06-22T22:03:12.098Z,10.20
2018-06-22T22:05:42.323Z,10.20
2018-06-22T22:08:12.272Z,10.20
2018-06-22T22:10:47.503Z,10.10
2018-06-22T22:13:17.819Z,10.10
2018-06-22T22:15:47.767Z,10.10
2018-06-22T22:18:17.669Z,10.10
2018-06-22T22:20:47.591Z,10.00
2018-06-22T22:23:18.235Z,10.00
2018-06-22T22:25:48.155Z,10.00
2018-06-22T22:28:18.081Z,10.00
2018-06-22T22:30:48.008Z,10.00
2018-06-22T22:33:18.389Z,10.00
2018-06-22T22:35:48.323Z,9.90
2018-06-22T22:38:18.409Z,9.90
2018-06-22T22:40:48.329Z,9.80
2018-06-22T22:43:19.333Z,9.80
2018-06-22T22:45:49.248Z,9.70
2018-06-22T22:48:19.184Z,9.70
2018-06-22T22:50:49.096Z,9.70
2018-06-22T22:53:19.440Z,9.60
2018-06-22T22:55:49.349Z,9.70
2018-06-22T22:58:19.269Z,9.70
2018-06-22T23:00:49.175Z,9.60
2018-06-22T23:03:19.324Z,9.60
2018-06-22T23:05:49.235Z,9.60
2018-06-22T23:08:19.148Z,9.50
2018-06-22T23:10:49.063Z,9.50
2018-06-22T23:13:19.308Z,9.50
2018-06-22T23:15:49.204Z,9.40
2018-06-22T23:18:19.116Z,9.40
2018-06-22T23:20:49.043Z,9.30
2018-06-22T23:23:34.727Z,9.40
2018-06-22T23:26:05.255Z,9.30
2018-06-22T23:28:35.195Z,9.40
2018-06-22T23:31:06.191Z,9.30
2018-06-22T23:33:36.208Z,9.30
2018-06-22T23:36:06.134Z,9.30
2018-06-22T23:38:36.060Z,9.30
2018-06-22T23:41:05.981Z,9.30
2018-06-22T23:43:35.879Z,9.30
2018-06-22T23:46:05.801Z,9.30
2018-06-22T23:48:35.707Z,9.20
2018-06-22T23:51:05.619Z,9.20
2018-06-22T23:53:35.526Z,9.20
2018-06-22T23:56:05.458Z,9.20
2018-06-22T23:58:35.373Z,9.20
